sensor_id;sensor_type;location;lat;lon;timestamp;P1;durP1;ratioP1;P2;durP2;ratioP2
4345;SDS011;2186;49.866;7.986;2023-02-14T00:02:24;5.03;;;1.03;;
4345;SDS011;2186;49.866;7.986;2023-02-14T00:04:50;0.77;;;0.77;;
4345;SDS011;2186;49.866;7.986;2023-02-14T00:07:17;0.77;;;0.77;;
4345;SDS011;2186;49.866;7.986;2023-02-14T00:09:43;1.37;;;1.27;;
4345;SDS011;2186;49.866;7.986;2023-02-14T00:12:10;1.53;;;1.53;;
4345;SDS011;2186;49.866;7.986;2023-02-14T00:14:36;1.20;;;1.20;;
4345;SDS011;2186;49.866;7.986;2023-02-14T00:17:21;2.63;;;1.50;;
4345;SDS011;2186;49.866;7.986;2023-02-14T00:19:48;1.03;;;1.03;;
4345;SDS011;2186;49.866;7.986;2023-02-14T00:22:14;3.50;;;1.57;;
4345;SDS011;2186;49.866;7.986;2023-02-14T00:24:40;1.83;;;1.73;;
4345;SDS011;2186;49.866;7.986;2023-02-14T00:27:07;1.20;;;0.53;;
4345;SDS011;2186;49.866;7.986;2023-02-14T00:29:33;4.20;;;0.70;;
4345;SDS011;2186;49.866;7.986;2023-02-14T00:32:00;1.23;;;1.07;;
4345;SDS011;2186;49.866;7.986;2023-02-14T00:34:27;1.40;;;1.40;;
4345;SDS011;2186;49.866;7.986;2023-02-14T00:36:54;1.70;;;0.73;;
4345;SDS011;2186;49.866;7.986;2023-02-14T00:39:21;0.67;;;0.67;;
4345;SDS011;2186;49.866;7.986;2023-02-14T00:41:47;5.63;;;2.60;;
4345;SDS011;2186;49.866;7.986;2023-02-14T00:44:14;0.60;;;0.60;;
4345;SDS011;2186;49.866;7.986;2023-02-14T00:46:40;1.13;;;1.10;;
4345;SDS011;2186;49.866;7.986;2023-02-14T00:49:06;1.70;;;0.83;;
4345;SDS011;2186;49.866;7.986;2023-02-14T00:51:33;0.97;;;0.97;;
4345;SDS011;2186;49.866;7.986;2023-02-14T00:54:00;2.30;;;2.20;;
4345;SDS011;2186;49.866;7.986;2023-02-14T00:56:27;2.43;;;0.83;;
4345;SDS011;2186;49.866;7.986;2023-02-14T00:58:53;0.43;;;0.40;;
4345;SDS011;2186;49.866;7.986;2023-02-14T01:01:20;1.43;;;1.37;;
4345;SDS011;2186;49.866;7.986;2023-02-14T01:03:46;1.50;;;1.50;;
4345;SDS011;2186;49.866;7.986;2023-02-14T01:06:13;0.77;;;0.67;;
4345;SDS011;2186;49.866;7.986;2023-02-14T01:08:40;1.10;;;1.00;;
4345;SDS011;2186;49.866;7.986;2023-02-14T01:11:10;0.30;;;0.30;;
4345;SDS011;2186;49.866;7.986;2023-02-14T01:13:39;0.30;;;0.30;;
4345;SDS011;2186;49.866;7.986;2023-02-14T01:16:07;2.20;;;2.10;;
4345;SDS011;2186;49.866;7.986;2023-02-14T01:18:36;0.80;;;0.30;;
4345;SDS011;2186;49.866;7.986;2023-02-14T01:23:47;0.87;;;0.87;;
4345;SDS011;2186;49.866;7.986;2023-02-14T01:26:15;3.00;;;2.70;;
4345;SDS011;2186;49.866;7.986;2023-02-14T01:28:42;1.73;;;1.63;;
4345;SDS011;2186;49.866;7.986;2023-02-14T01:33:38;2.00;;;1.90;;
4345;SDS011;2186;49.866;7.986;2023-02-14T01:36:05;1.10;;;1.10;;
4345;SDS011;2186;49.866;7.986;2023-02-14T01:38:32;0.93;;;0.77;;
4345;SDS011;2186;49.866;7.986;2023-02-14T01:40:59;2.40;;;2.10;;
4345;SDS011;2186;49.866;7.986;2023-02-14T01:43:26;7.53;;;3.07;;
4345;SDS011;2186;49.866;7.986;2023-02-14T01:45:53;1.43;;;1.43;;
4345;SDS011;2186;49.866;7.986;2023-02-14T01:48:19;1.70;;;1.63;;
4345;SDS011;2186;49.866;7.986;2023-02-14T01:50:47;0.93;;;0.93;;
4345;SDS011;2186;49.866;7.986;2023-02-14T01:53:19;1.30;;;1.27;;
4345;SDS011;2186;49.866;7.986;2023-02-14T01:55:52;0.50;;;0.50;;
4345;SDS011;2186;49.866;7.986;2023-02-14T01:58:26;1.13;;;0.70;;
4345;SDS011;2186;49.866;7.986;2023-02-14T02:01:00;1.43;;;0.67;;
4345;SDS011;2186;49.866;7.986;2023-02-14T02:03:31;1.23;;;1.03;;
4345;SDS011;2186;49.866;7.986;2023-02-14T02:06:16;1.00;;;1.00;;
4345;SDS011;2186;49.866;7.986;2023-02-14T02:09:07;2.13;;;2.03;;
4345;SDS011;2186;49.866;7.986;2023-02-14T02:11:43;3.73;;;0.80;;
4345;SDS011;2186;49.866;7.986;2023-02-14T02:14:14;0.70;;;0.70;;
4345;SDS011;2186;49.866;7.986;2023-02-14T02:22:06;6.43;;;2.00;;
4345;SDS011;2186;49.866;7.986;2023-02-14T02:24:56;2.20;;;1.10;;
4345;SDS011;2186;49.866;7.986;2023-02-14T02:41:47;3.40;;;1.70;;
4345;SDS011;2186;49.866;7.986;2023-02-14T02:47:24;0.40;;;0.40;;
4345;SDS011;2186;49.866;7.986;2023-02-14T02:53:41;4.57;;;3.50;;
4345;SDS011;2186;49.866;7.986;2023-02-14T02:56:24;25.27;;;4.43;;
4345;SDS011;2186;49.866;7.986;2023-02-14T03:01:51;1.27;;;1.17;;
4345;SDS011;2186;49.866;7.986;2023-02-14T03:04:23;2.83;;;2.63;;
4345;SDS011;2186;49.866;7.986;2023-02-14T03:07:09;1.03;;;0.83;;
4345;SDS011;2186;49.866;7.986;2023-02-14T03:09:55;4.47;;;2.80;;
4345;SDS011;2186;49.866;7.986;2023-02-14T03:23:42;13.93;;;2.00;;
4345;SDS011;2186;49.866;7.986;2023-02-14T03:26:20;2.20;;;2.13;;
4345;SDS011;2186;49.866;7.986;2023-02-14T03:28:58;11.40;;;1.90;;
4345;SDS011;2186;49.866;7.986;2023-02-14T03:34:40;4.90;;;4.50;;
4345;SDS011;2186;49.866;7.986;2023-02-14T03:42:38;1.53;;;1.43;;
4345;SDS011;2186;49.866;7.986;2023-02-14T03:45:12;1.33;;;1.23;;
4345;SDS011;2186;49.866;7.986;2023-02-14T03:47:52;1.23;;;1.13;;
4345;SDS011;2186;49.866;7.986;2023-02-14T03:50:21;1.33;;;1.23;;
4345;SDS011;2186;49.866;7.986;2023-02-14T03:52:49;2.20;;;1.40;;
4345;SDS011;2186;49.866;7.986;2023-02-14T03:55:23;0.30;;;0.30;;
4345;SDS011;2186;49.866;7.986;2023-02-14T03:58:00;5.40;;;1.13;;
4345;SDS011;2186;49.866;7.986;2023-02-14T04:00:33;0.57;;;0.57;;
4345;SDS011;2186;49.866;7.986;2023-02-14T04:03:05;3.07;;;2.77;;
4345;SDS011;2186;49.866;7.986;2023-02-14T04:05:37;1.90;;;1.80;;
4345;SDS011;2186;49.866;7.986;2023-02-14T04:08:09;8.00;;;1.40;;
4345;SDS011;2186;49.866;7.986;2023-02-14T04:10:36;2.57;;;2.37;;
4345;SDS011;2186;49.866;7.986;2023-02-14T04:13:05;2.43;;;2.33;;
4345;SDS011;2186;49.866;7.986;2023-02-14T04:15:31;0.70;;;0.70;;
4345;SDS011;2186;49.866;7.986;2023-02-14T04:17:58;0.93;;;0.83;;
4345;SDS011;2186;49.866;7.986;2023-02-14T04:20:43;1.00;;;1.00;;
4345;SDS011;2186;49.866;7.986;2023-02-14T04:23:09;2.67;;;2.57;;
4345;SDS011;2186;49.866;7.986;2023-02-14T04:25:36;3.77;;;3.17;;
4345;SDS011;2186;49.866;7.986;2023-02-14T04:28:05;1.70;;;1.60;;
4345;SDS011;2186;49.866;7.986;2023-02-14T04:30:31;0.77;;;0.67;;
4345;SDS011;2186;49.866;7.986;2023-02-14T04:32:57;0.77;;;0.70;;
4345;SDS011;2186;49.866;7.986;2023-02-14T04:35:24;3.43;;;2.40;;
4345;SDS011;2186;49.866;7.986;2023-02-14T04:37:50;0.70;;;0.70;;
4345;SDS011;2186;49.866;7.986;2023-02-14T04:40:17;0.40;;;0.40;;
4345;SDS011;2186;49.866;7.986;2023-02-14T04:42:44;1.90;;;1.80;;
4345;SDS011;2186;49.866;7.986;2023-02-14T04:45:11;0.93;;;0.90;;
4345;SDS011;2186;49.866;7.986;2023-02-14T04:47:37;3.00;;;1.83;;
4345;SDS011;2186;49.866;7.986;2023-02-14T04:50:04;3.30;;;3.10;;
4345;SDS011;2186;49.866;7.986;2023-02-14T04:52:32;20.60;;;2.70;;
4345;SDS011;2186;49.866;7.986;2023-02-14T04:54:58;1.70;;;1.70;;
4345;SDS011;2186;49.866;7.986;2023-02-14T04:57:24;2.20;;;2.10;;
4345;SDS011;2186;49.866;7.986;2023-02-14T04:59:51;1.70;;;1.60;;
4345;SDS011;2186;49.866;7.986;2023-02-14T05:02:17;2.10;;;1.03;;
4345;SDS011;2186;49.866;7.986;2023-02-14T05:04:44;1.60;;;1.50;;
4345;SDS011;2186;49.866;7.986;2023-02-14T05:07:10;1.23;;;1.13;;
4345;SDS011;2186;49.866;7.986;2023-02-14T05:09:37;5.60;;;1.77;;
4345;SDS011;2186;49.866;7.986;2023-02-14T05:12:03;0.60;;;0.60;;
4345;SDS011;2186;49.866;7.986;2023-02-14T05:14:30;4.53;;;1.03;;
4345;SDS011;2186;49.866;7.986;2023-02-14T05:16:56;2.73;;;1.43;;
4345;SDS011;2186;49.866;7.986;2023-02-14T05:19:23;1.13;;;1.03;;
4345;SDS011;2186;49.866;7.986;2023-02-14T05:21:49;1.53;;;1.43;;
4345;SDS011;2186;49.866;7.986;2023-02-14T05:24:16;1.17;;;1.00;;
4345;SDS011;2186;49.866;7.986;2023-02-14T05:26:43;1.17;;;1.17;;
4345;SDS011;2186;49.866;7.986;2023-02-14T05:29:09;1.83;;;1.20;;
4345;SDS011;2186;49.866;7.986;2023-02-14T05:31:35;4.03;;;1.40;;
4345;SDS011;2186;49.866;7.986;2023-02-14T05:34:02;1.10;;;1.10;;
4345;SDS011;2186;49.866;7.986;2023-02-14T05:36:29;0.70;;;0.60;;
4345;SDS011;2186;49.866;7.986;2023-02-14T05:38:55;5.97;;;1.03;;
4345;SDS011;2186;49.866;7.986;2023-02-14T05:41:22;1.07;;;1.07;;
4345;SDS011;2186;49.866;7.986;2023-02-14T05:43:48;0.77;;;0.63;;
4345;SDS011;2186;49.866;7.986;2023-02-14T05:46:15;1.93;;;1.83;;
4345;SDS011;2186;49.866;7.986;2023-02-14T05:48:41;0.50;;;0.50;;
4345;SDS011;2186;49.866;7.986;2023-02-14T05:51:08;3.70;;;1.60;;
4345;SDS011;2186;49.866;7.986;2023-02-14T05:53:35;1.03;;;1.03;;
4345;SDS011;2186;49.866;7.986;2023-02-14T05:56:03;3.03;;;2.83;;
4345;SDS011;2186;49.866;7.986;2023-02-14T05:58:30;1.03;;;1.03;;
4345;SDS011;2186;49.866;7.986;2023-02-14T06:00:57;0.93;;;0.93;;
4345;SDS011;2186;49.866;7.986;2023-02-14T06:03:24;2.47;;;2.33;;
4345;SDS011;2186;49.866;7.986;2023-02-14T06:05:51;1.10;;;1.10;;
4345;SDS011;2186;49.866;7.986;2023-02-14T06:08:17;0.50;;;0.30;;
4345;SDS011;2186;49.866;7.986;2023-02-14T06:10:44;0.80;;;0.80;;
4345;SDS011;2186;49.866;7.986;2023-02-14T06:13:11;1.27;;;1.27;;
4345;SDS011;2186;49.866;7.986;2023-02-14T06:15:37;3.47;;;3.30;;
4345;SDS011;2186;49.866;7.986;2023-02-14T06:18:04;2.10;;;1.90;;
4345;SDS011;2186;49.866;7.986;2023-02-14T06:20:31;15.37;;;2.03;;
4345;SDS011;2186;49.866;7.986;2023-02-14T06:22:57;1.90;;;1.80;;
4345;SDS011;2186;49.866;7.986;2023-02-14T06:25:24;0.67;;;0.67;;
4345;SDS011;2186;49.866;7.986;2023-02-14T06:27:54;4.33;;;1.50;;
4345;SDS011;2186;49.866;7.986;2023-02-14T06:30:22;3.13;;;1.60;;
4345;SDS011;2186;49.866;7.986;2023-02-14T06:32:48;1.40;;;0.87;;
4345;SDS011;2186;49.866;7.986;2023-02-14T06:35:16;1.07;;;1.07;;
4345;SDS011;2186;49.866;7.986;2023-02-14T06:37:42;5.10;;;0.40;;
4345;SDS011;2186;49.866;7.986;2023-02-14T06:40:10;7.43;;;2.43;;
4345;SDS011;2186;49.866;7.986;2023-02-14T06:42:38;0.70;;;0.70;;
4345;SDS011;2186;49.866;7.986;2023-02-14T06:45:04;1.70;;;1.57;;
4345;SDS011;2186;49.866;7.986;2023-02-14T06:47:31;2.07;;;1.87;;
4345;SDS011;2186;49.866;7.986;2023-02-14T06:50:00;1.10;;;1.07;;
4345;SDS011;2186;49.866;7.986;2023-02-14T06:52:29;1.73;;;1.67;;
4345;SDS011;2186;49.866;7.986;2023-02-14T06:54:57;1.23;;;1.23;;
4345;SDS011;2186;49.866;7.986;2023-02-14T06:57:23;3.33;;;3.03;;
4345;SDS011;2186;49.866;7.986;2023-02-14T06:59:49;13.93;;;4.73;;
4345;SDS011;2186;49.866;7.986;2023-02-14T07:02:16;1.73;;;1.63;;
4345;SDS011;2186;49.866;7.986;2023-02-14T07:04:42;5.93;;;2.30;;
4345;SDS011;2186;49.866;7.986;2023-02-14T07:07:08;16.00;;;3.00;;
4345;SDS011;2186;49.866;7.986;2023-02-14T07:09:35;2.70;;;1.70;;
4345;SDS011;2186;49.866;7.986;2023-02-14T07:12:01;1.23;;;1.20;;
4345;SDS011;2186;49.866;7.986;2023-02-14T07:14:28;2.93;;;2.67;;
4345;SDS011;2186;49.866;7.986;2023-02-14T07:16:54;4.73;;;2.17;;
4345;SDS011;2186;49.866;7.986;2023-02-14T07:19:21;0.83;;;0.83;;
4345;SDS011;2186;49.866;7.986;2023-02-14T07:21:47;0.53;;;0.50;;
4345;SDS011;2186;49.866;7.986;2023-02-14T07:24:14;1.30;;;1.30;;
4345;SDS011;2186;49.866;7.986;2023-02-14T07:26:40;2.70;;;2.60;;
4345;SDS011;2186;49.866;7.986;2023-02-14T07:29:07;1.07;;;0.90;;
4345;SDS011;2186;49.866;7.986;2023-02-14T07:31:33;1.03;;;1.03;;
4345;SDS011;2186;49.866;7.986;2023-02-14T07:34:00;0.87;;;0.83;;
4345;SDS011;2186;49.866;7.986;2023-02-14T07:36:26;4.90;;;3.20;;
4345;SDS011;2186;49.866;7.986;2023-02-14T07:38:54;0.70;;;0.70;;
4345;SDS011;2186;49.866;7.986;2023-02-14T07:41:21;3.63;;;3.33;;
4345;SDS011;2186;49.866;7.986;2023-02-14T07:43:48;0.80;;;0.80;;
4345;SDS011;2186;49.866;7.986;2023-02-14T07:46:14;1.13;;;0.83;;
4345;SDS011;2186;49.866;7.986;2023-02-14T07:48:42;1.23;;;1.23;;
4345;SDS011;2186;49.866;7.986;2023-02-14T07:51:09;2.47;;;2.27;;
4345;SDS011;2186;49.866;7.986;2023-02-14T07:53:36;3.13;;;2.93;;
4345;SDS011;2186;49.866;7.986;2023-02-14T07:56:02;1.53;;;1.53;;
4345;SDS011;2186;49.866;7.986;2023-02-14T07:58:29;2.10;;;2.00;;
4345;SDS011;2186;49.866;7.986;2023-02-14T08:00:55;5.73;;;2.10;;
4345;SDS011;2186;49.866;7.986;2023-02-14T08:03:22;1.43;;;1.33;;
4345;SDS011;2186;49.866;7.986;2023-02-14T08:05:48;4.17;;;3.97;;
4345;SDS011;2186;49.866;7.986;2023-02-14T08:08:26;3.13;;;2.73;;
4345;SDS011;2186;49.866;7.986;2023-02-14T08:10:54;0.67;;;0.67;;
4345;SDS011;2186;49.866;7.986;2023-02-14T08:13:20;5.17;;;3.87;;
4345;SDS011;2186;49.866;7.986;2023-02-14T08:15:47;1.73;;;1.60;;
4345;SDS011;2186;49.866;7.986;2023-02-14T08:18:30;4.07;;;3.87;;
4345;SDS011;2186;49.866;7.986;2023-02-14T08:20:58;3.60;;;3.20;;
4345;SDS011;2186;49.866;7.986;2023-02-14T08:23:26;4.47;;;2.00;;
4345;SDS011;2186;49.866;7.986;2023-02-14T08:25:52;2.93;;;2.53;;
4345;SDS011;2186;49.866;7.986;2023-02-14T08:28:19;2.73;;;1.70;;
4345;SDS011;2186;49.866;7.986;2023-02-14T08:30:48;1.50;;;1.37;;
4345;SDS011;2186;49.866;7.986;2023-02-14T08:33:15;2.10;;;1.33;;
4345;SDS011;2186;49.866;7.986;2023-02-14T08:35:42;1.70;;;1.60;;
4345;SDS011;2186;49.866;7.986;2023-02-14T08:38:08;4.83;;;3.20;;
4345;SDS011;2186;49.866;7.986;2023-02-14T08:40:35;4.03;;;1.80;;
4345;SDS011;2186;49.866;7.986;2023-02-14T08:43:03;1.80;;;1.70;;
4345;SDS011;2186;49.866;7.986;2023-02-14T08:45:33;2.20;;;1.63;;
4345;SDS011;2186;49.866;7.986;2023-02-14T08:48:00;1.80;;;1.70;;
4345;SDS011;2186;49.866;7.986;2023-02-14T08:50:28;8.77;;;3.23;;
4345;SDS011;2186;49.866;7.986;2023-02-14T08:52:54;8.00;;;3.47;;
4345;SDS011;2186;49.866;7.986;2023-02-14T08:55:21;2.07;;;1.83;;
4345;SDS011;2186;49.866;7.986;2023-02-14T08:57:47;1.60;;;1.50;;
4345;SDS011;2186;49.866;7.986;2023-02-14T09:00:14;1.90;;;1.50;;
4345;SDS011;2186;49.866;7.986;2023-02-14T09:02:41;2.07;;;2.00;;
4345;SDS011;2186;49.866;7.986;2023-02-14T09:05:07;5.37;;;2.93;;
4345;SDS011;2186;49.866;7.986;2023-02-14T09:07:35;3.13;;;2.87;;
4345;SDS011;2186;49.866;7.986;2023-02-14T09:10:02;4.00;;;2.17;;
4345;SDS011;2186;49.866;7.986;2023-02-14T09:12:29;2.23;;;1.60;;
4345;SDS011;2186;49.866;7.986;2023-02-14T09:14:55;5.30;;;3.10;;
4345;SDS011;2186;49.866;7.986;2023-02-14T09:17:22;2.00;;;1.80;;
4345;SDS011;2186;49.866;7.986;2023-02-14T09:19:48;12.03;;;4.20;;
4345;SDS011;2186;49.866;7.986;2023-02-14T09:22:15;7.03;;;2.90;;
4345;SDS011;2186;49.866;7.986;2023-02-14T09:24:44;8.23;;;2.43;;
4345;SDS011;2186;49.866;7.986;2023-02-14T09:27:10;4.30;;;1.33;;
4345;SDS011;2186;49.866;7.986;2023-02-14T09:29:37;11.50;;;4.40;;
4345;SDS011;2186;49.866;7.986;2023-02-14T09:32:03;3.43;;;2.40;;
4345;SDS011;2186;49.866;7.986;2023-02-14T09:34:31;9.60;;;3.90;;
4345;SDS011;2186;49.866;7.986;2023-02-14T09:37:18;1.80;;;1.70;;
4345;SDS011;2186;49.866;7.986;2023-02-14T09:39:44;3.10;;;3.00;;
4345;SDS011;2186;49.866;7.986;2023-02-14T09:42:22;7.27;;;2.80;;
4345;SDS011;2186;49.866;7.986;2023-02-14T09:45:04;4.20;;;3.67;;
4345;SDS011;2186;49.866;7.986;2023-02-14T09:47:45;8.30;;;3.63;;
4345;SDS011;2186;49.866;7.986;2023-02-14T09:53:24;2.70;;;2.50;;
4345;SDS011;2186;49.866;7.986;2023-02-14T09:56:00;13.67;;;5.30;;
4345;SDS011;2186;49.866;7.986;2023-02-14T10:01:31;5.33;;;3.13;;
4345;SDS011;2186;49.866;7.986;2023-02-14T10:07:05;6.00;;;3.80;;
4345;SDS011;2186;49.866;7.986;2023-02-14T10:12:37;7.57;;;3.90;;
4345;SDS011;2186;49.866;7.986;2023-02-14T10:15:13;4.60;;;3.10;;
4345;SDS011;2186;49.866;7.986;2023-02-14T10:17:45;6.53;;;4.40;;
4345;SDS011;2186;49.866;7.986;2023-02-14T10:20:17;5.17;;;3.40;;
4345;SDS011;2186;49.866;7.986;2023-02-14T10:23:04;10.10;;;4.80;;
4345;SDS011;2186;49.866;7.986;2023-02-14T10:25:45;6.50;;;5.83;;
4345;SDS011;2186;49.866;7.986;2023-02-14T10:28:21;22.67;;;5.70;;
4345;SDS011;2186;49.866;7.986;2023-02-14T10:30:58;4.83;;;4.53;;
4345;SDS011;2186;49.866;7.986;2023-02-14T10:33:44;9.50;;;3.73;;
4345;SDS011;2186;49.866;7.986;2023-02-14T10:36:31;7.67;;;4.97;;
4345;SDS011;2186;49.866;7.986;2023-02-14T10:47:55;14.50;;;3.30;;
4345;SDS011;2186;49.866;7.986;2023-02-14T10:50:34;6.23;;;2.63;;
4345;SDS011;2186;49.866;7.986;2023-02-14T10:53:26;13.23;;;6.00;;
4345;SDS011;2186;49.866;7.986;2023-02-14T10:56:16;17.83;;;4.10;;
4345;SDS011;2186;49.866;7.986;2023-02-14T10:59:06;4.90;;;4.20;;
4345;SDS011;2186;49.866;7.986;2023-02-14T11:01:44;16.80;;;3.03;;
4345;SDS011;2186;49.866;7.986;2023-02-14T11:04:12;13.80;;;3.90;;
4345;SDS011;2186;49.866;7.986;2023-02-14T11:06:42;5.23;;;4.73;;
4345;SDS011;2186;49.866;7.986;2023-02-14T11:09:09;5.80;;;4.63;;
4345;SDS011;2186;49.866;7.986;2023-02-14T11:11:38;20.97;;;7.07;;
4345;SDS011;2186;49.866;7.986;2023-02-14T11:14:20;8.07;;;5.07;;
4345;SDS011;2186;49.866;7.986;2023-02-14T11:16:49;8.80;;;3.60;;
4345;SDS011;2186;49.866;7.986;2023-02-14T11:19:18;22.53;;;4.90;;
4345;SDS011;2186;49.866;7.986;2023-02-14T11:21:46;6.00;;;3.17;;
4345;SDS011;2186;49.866;7.986;2023-02-14T11:24:26;18.63;;;3.57;;
4345;SDS011;2186;49.866;7.986;2023-02-14T11:27:01;17.23;;;3.77;;
4345;SDS011;2186;49.866;7.986;2023-02-14T11:29:50;5.53;;;3.40;;
4345;SDS011;2186;49.866;7.986;2023-02-14T11:32:23;8.53;;;2.47;;
4345;SDS011;2186;49.866;7.986;2023-02-14T11:34:52;5.00;;;4.10;;
4345;SDS011;2186;49.866;7.986;2023-02-14T11:37:26;4.63;;;3.70;;
4345;SDS011;2186;49.866;7.986;2023-02-14T11:39:56;6.30;;;5.53;;
4345;SDS011;2186;49.866;7.986;2023-02-14T11:45:50;13.47;;;2.77;;
4345;SDS011;2186;49.866;7.986;2023-02-14T11:48:11;0.93;;;0.90;;
4345;SDS011;2186;49.866;7.986;2023-02-14T11:51:06;7.47;;;3.50;;
4345;SDS011;2186;49.866;7.986;2023-02-14T11:53:43;15.13;;;6.00;;
4345;SDS011;2186;49.866;7.986;2023-02-14T11:56:13;11.10;;;6.27;;
4345;SDS011;2186;49.866;7.986;2023-02-14T12:01:29;8.80;;;4.30;;
4345;SDS011;2186;49.866;7.986;2023-02-14T12:03:58;8.77;;;3.73;;
4345;SDS011;2186;49.866;7.986;2023-02-14T12:06:37;6.27;;;5.47;;
4345;SDS011;2186;49.866;7.986;2023-02-14T12:11:38;9.10;;;6.17;;
4345;SDS011;2186;49.866;7.986;2023-02-14T12:14:08;5.80;;;4.53;;
4345;SDS011;2186;49.866;7.986;2023-02-14T12:16:57;10.70;;;2.60;;
4345;SDS011;2186;49.866;7.986;2023-02-14T12:20:16;9.93;;;2.80;;
4345;SDS011;2186;49.866;7.986;2023-02-14T12:22:57;18.87;;;6.57;;
4345;SDS011;2186;49.866;7.986;2023-02-14T12:25:38;9.53;;;3.47;;
4345;SDS011;2186;49.866;7.986;2023-02-14T12:28:11;8.50;;;4.57;;
4345;SDS011;2186;49.866;7.986;2023-02-14T12:30:41;2.20;;;1.20;;
4345;SDS011;2186;49.866;7.986;2023-02-14T12:33:17;11.30;;;4.90;;
4345;SDS011;2186;49.866;7.986;2023-02-14T12:36:01;6.93;;;3.87;;
4345;SDS011;2186;49.866;7.986;2023-02-14T12:38:40;12.87;;;5.63;;
4345;SDS011;2186;49.866;7.986;2023-02-14T12:41:23;3.30;;;2.23;;
4345;SDS011;2186;49.866;7.986;2023-02-14T12:49:14;3.57;;;3.40;;
4345;SDS011;2186;49.866;7.986;2023-02-14T12:54:37;12.53;;;4.07;;
4345;SDS011;2186;49.866;7.986;2023-02-14T13:03:01;6.67;;;4.77;;
4345;SDS011;2186;49.866;7.986;2023-02-14T13:05:48;9.20;;;5.33;;
4345;SDS011;2186;49.866;7.986;2023-02-14T13:08:50;22.57;;;7.30;;
4345;SDS011;2186;49.866;7.986;2023-02-14T13:14:04;10.63;;;3.97;;
4345;SDS011;2186;49.866;7.986;2023-02-14T13:22:17;7.07;;;5.37;;
4345;SDS011;2186;49.866;7.986;2023-02-14T13:24:47;7.77;;;3.60;;
4345;SDS011;2186;49.866;7.986;2023-02-14T13:27:18;11.53;;;5.87;;
4345;SDS011;2186;49.866;7.986;2023-02-14T13:29:49;13.40;;;4.17;;
4345;SDS011;2186;49.866;7.986;2023-02-14T13:32:19;5.80;;;5.13;;
4345;SDS011;2186;49.866;7.986;2023-02-14T13:34:49;4.57;;;2.87;;
4345;SDS011;2186;49.866;7.986;2023-02-14T13:37:16;6.60;;;6.10;;
4345;SDS011;2186;49.866;7.986;2023-02-14T13:39:47;11.33;;;4.40;;
4345;SDS011;2186;49.866;7.986;2023-02-14T13:48:09;13.30;;;6.03;;
4345;SDS011;2186;49.866;7.986;2023-02-14T13:50:39;7.53;;;3.40;;
4345;SDS011;2186;49.866;7.986;2023-02-14T13:53:11;4.00;;;3.57;;
4345;SDS011;2186;49.866;7.986;2023-02-14T13:55:42;13.53;;;5.37;;
4345;SDS011;2186;49.866;7.986;2023-02-14T13:58:14;10.50;;;5.93;;
4345;SDS011;2186;49.866;7.986;2023-02-14T14:00:44;10.33;;;4.87;;
4345;SDS011;2186;49.866;7.986;2023-02-14T14:03:13;10.67;;;3.67;;
4345;SDS011;2186;49.866;7.986;2023-02-14T14:05:44;5.23;;;4.73;;
4345;SDS011;2186;49.866;7.986;2023-02-14T14:19:37;6.63;;;3.03;;
4345;SDS011;2186;49.866;7.986;2023-02-14T14:22:04;5.67;;;5.10;;
4345;SDS011;2186;49.866;7.986;2023-02-14T14:24:35;5.40;;;4.97;;
4345;SDS011;2186;49.866;7.986;2023-02-14T14:27:16;5.53;;;3.73;;
4345;SDS011;2186;49.866;7.986;2023-02-14T14:29:51;11.70;;;5.43;;
4345;SDS011;2186;49.866;7.986;2023-02-14T14:32:23;2.30;;;2.03;;
4345;SDS011;2186;49.866;7.986;2023-02-14T14:34:51;7.17;;;5.70;;
4345;SDS011;2186;49.866;7.986;2023-02-14T14:37:21;10.13;;;4.07;;
4345;SDS011;2186;49.866;7.986;2023-02-14T14:39:54;10.37;;;5.70;;
4345;SDS011;2186;49.866;7.986;2023-02-14T14:42:25;5.43;;;5.10;;
4345;SDS011;2186;49.866;7.986;2023-02-14T14:44:56;4.10;;;3.80;;
4345;SDS011;2186;49.866;7.986;2023-02-14T14:47:28;7.73;;;5.00;;
4345;SDS011;2186;49.866;7.986;2023-02-14T14:50:04;18.27;;;4.97;;
4345;SDS011;2186;49.866;7.986;2023-02-14T14:52:36;5.90;;;4.50;;
4345;SDS011;2186;49.866;7.986;2023-02-14T14:55:07;7.83;;;6.27;;
4345;SDS011;2186;49.866;7.986;2023-02-14T14:57:41;22.87;;;6.47;;
4345;SDS011;2186;49.866;7.986;2023-02-14T15:02:54;6.80;;;4.43;;
4345;SDS011;2186;49.866;7.986;2023-02-14T15:05:39;9.43;;;3.90;;
4345;SDS011;2186;49.866;7.986;2023-02-14T15:10:51;6.40;;;3.37;;
4345;SDS011;2186;49.866;7.986;2023-02-14T15:13:43;8.33;;;4.73;;
4345;SDS011;2186;49.866;7.986;2023-02-14T15:16:16;7.97;;;4.30;;
4345;SDS011;2186;49.866;7.986;2023-02-14T15:18:47;9.90;;;6.70;;
4345;SDS011;2186;49.866;7.986;2023-02-14T15:21:14;11.10;;;4.30;;
4345;SDS011;2186;49.866;7.986;2023-02-14T15:23:41;5.80;;;5.37;;
4345;SDS011;2186;49.866;7.986;2023-02-14T15:26:15;23.70;;;6.63;;
4345;SDS011;2186;49.866;7.986;2023-02-14T15:28:43;3.80;;;3.53;;
4345;SDS011;2186;49.866;7.986;2023-02-14T15:31:18;5.60;;;3.93;;
4345;SDS011;2186;49.866;7.986;2023-02-14T15:33:45;16.03;;;3.93;;
4345;SDS011;2186;49.866;7.986;2023-02-14T15:36:15;4.67;;;4.23;;
4345;SDS011;2186;49.866;7.986;2023-02-14T15:38:45;13.00;;;8.00;;
4345;SDS011;2186;49.866;7.986;2023-02-14T15:41:12;13.30;;;4.30;;
4345;SDS011;2186;49.866;7.986;2023-02-14T15:43:39;10.00;;;5.13;;
4345;SDS011;2186;49.866;7.986;2023-02-14T15:46:24;4.30;;;4.13;;
4345;SDS011;2186;49.866;7.986;2023-02-14T15:48:57;30.27;;;4.40;;
4345;SDS011;2186;49.866;7.986;2023-02-14T15:51:27;33.73;;;4.73;;
4345;SDS011;2186;49.866;7.986;2023-02-14T15:53:58;6.67;;;6.07;;
4345;SDS011;2186;49.866;7.986;2023-02-14T15:56:27;23.10;;;7.37;;
4345;SDS011;2186;49.866;7.986;2023-02-14T16:01:25;5.23;;;4.43;;
4345;SDS011;2186;49.866;7.986;2023-02-14T16:03:53;11.13;;;5.10;;
4345;SDS011;2186;49.866;7.986;2023-02-14T16:06:32;22.57;;;3.57;;
4345;SDS011;2186;49.866;7.986;2023-02-14T16:09:05;5.67;;;3.13;;
4345;SDS011;2186;49.866;7.986;2023-02-14T16:11:47;5.13;;;4.67;;
4345;SDS011;2186;49.866;7.986;2023-02-14T16:14:30;12.60;;;5.17;;
4345;SDS011;2186;49.866;7.986;2023-02-14T16:19:37;7.10;;;4.53;;
4345;SDS011;2186;49.866;7.986;2023-02-14T16:22:26;38.27;;;7.87;;
4345;SDS011;2186;49.866;7.986;2023-02-14T16:24:57;13.13;;;5.27;;
4345;SDS011;2186;49.866;7.986;2023-02-14T16:27:24;17.57;;;5.23;;
4345;SDS011;2186;49.866;7.986;2023-02-14T16:29:50;13.43;;;4.13;;
4345;SDS011;2186;49.866;7.986;2023-02-14T16:32:21;8.30;;;4.63;;
4345;SDS011;2186;49.866;7.986;2023-02-14T16:34:49;5.43;;;3.63;;
4345;SDS011;2186;49.866;7.986;2023-02-14T16:39:52;10.33;;;3.77;;
4345;SDS011;2186;49.866;7.986;2023-02-14T16:42:22;14.77;;;6.57;;
4345;SDS011;2186;49.866;7.986;2023-02-14T16:44:49;17.93;;;4.97;;
4345;SDS011;2186;49.866;7.986;2023-02-14T16:47:16;10.43;;;6.30;;
4345;SDS011;2186;49.866;7.986;2023-02-14T16:49:44;6.37;;;5.97;;
4345;SDS011;2186;49.866;7.986;2023-02-14T16:52:12;5.43;;;4.90;;
4345;SDS011;2186;49.866;7.986;2023-02-14T16:54:41;30.17;;;6.47;;
4345;SDS011;2186;49.866;7.986;2023-02-14T16:57:10;8.23;;;7.63;;
4345;SDS011;2186;49.866;7.986;2023-02-14T16:59:45;6.90;;;5.20;;
4345;SDS011;2186;49.866;7.986;2023-02-14T17:02:11;4.40;;;3.83;;
4345;SDS011;2186;49.866;7.986;2023-02-14T17:04:39;5.50;;;4.73;;
4345;SDS011;2186;49.866;7.986;2023-02-14T17:07:05;10.20;;;4.70;;
4345;SDS011;2186;49.866;7.986;2023-02-14T17:09:35;42.17;;;9.80;;
4345;SDS011;2186;49.866;7.986;2023-02-14T17:12:07;111.23;;;26.57;;
4345;SDS011;2186;49.866;7.986;2023-02-14T17:14:40;18.50;;;8.77;;
4345;SDS011;2186;49.866;7.986;2023-02-14T17:17:10;11.73;;;4.67;;
4345;SDS011;2186;49.866;7.986;2023-02-14T17:19:37;6.10;;;3.40;;
4345;SDS011;2186;49.866;7.986;2023-02-14T17:22:04;8.43;;;4.67;;
4345;SDS011;2186;49.866;7.986;2023-02-14T17:24:31;5.40;;;3.87;;
4345;SDS011;2186;49.866;7.986;2023-02-14T17:26:57;8.77;;;3.97;;
4345;SDS011;2186;49.866;7.986;2023-02-14T17:29:24;9.53;;;3.33;;
4345;SDS011;2186;49.866;7.986;2023-02-14T17:31:51;18.63;;;3.60;;
4345;SDS011;2186;49.866;7.986;2023-02-14T17:34:17;5.53;;;4.90;;
4345;SDS011;2186;49.866;7.986;2023-02-14T17:36:44;2.97;;;2.30;;
4345;SDS011;2186;49.866;7.986;2023-02-14T17:39:10;6.60;;;3.53;;
4345;SDS011;2186;49.866;7.986;2023-02-14T17:41:36;2.57;;;1.57;;
4345;SDS011;2186;49.866;7.986;2023-02-14T17:44:03;19.23;;;3.07;;
4345;SDS011;2186;49.866;7.986;2023-02-14T17:46:32;9.40;;;4.30;;
4345;SDS011;2186;49.866;7.986;2023-02-14T17:48:58;8.47;;;3.70;;
4345;SDS011;2186;49.866;7.986;2023-02-14T17:51:30;10.57;;;3.57;;